Time;durP1;ratioP1;P1;durP2;ratioP2;P2;SDS_P1;SDS_P2;PMS_P1;PMS_P2;Temp;Humidity;BMP_temperature;BMP_pressure;BME280_temperature;BME280_humidity;BME280_pressure;Samples;Min_cycle;Max_cycle;Signal;HPM_P1;HPM_P2
2021/04/03 00:01:29;;;;;;;11.18;4.45;;;8.80;91.60;;;;;;5010525;28;20482;-71
2021/04/03 00:03:54;;;;;;;7.55;3.47;;;8.80;91.40;;;;;;5011881;28;20058;-70
2021/04/03 00:06:20;;;;;;;6.25;3.30;;;8.80;91.50;;;;;;5009904;28;20060;-69
2021/04/03 00:08:45;;;;;;;6.60;3.75;;;8.70;91.70;;;;;;5023398;28;20033;-75
2021/04/03 00:11:11;;;;;;;9.98;3.55;;;8.70;91.50;;;;;;5010202;28;20053;-69
2021/04/03 00:13:39;;;;;;;7.90;3.53;;;8.70;91.40;;;;;;5030697;28;20026;-69
2021/04/03 00:16:05;;;;;;;12.60;4.05;;;8.70;91.40;;;;;;5023132;28;20030;-71
2021/04/03 00:18:31;;;;;;;9.00;4.22;;;8.70;91.30;;;;;;5025934;28;20037;-71
2021/04/03 00:20:57;;;;;;;11.95;4.20;;;8.70;91.30;;;;;;4997957;28;20053;-71
2021/04/03 00:23:23;;;;;;;11.65;4.90;;;8.60;91.20;;;;;;5023239;28;20033;-71
2021/04/03 00:25:50;;;;;;;10.20;4.30;;;8.50;91.50;;;;;;5026542;28;20030;-71
2021/04/03 00:28:16;;;;;;;8.65;4.38;;;8.50;91.30;;;;;;5017841;28;20026;-71
2021/04/03 00:30:42;;;;;;;7.45;3.58;;;8.50;91.20;;;;;;4996376;28;20041;-71
2021/04/03 00:33:08;;;;;;;9.73;4.00;;;8.50;91.00;;;;;;5029263;28;20026;-70
2021/04/03 00:35:36;;;;;;;10.68;3.30;;;8.50;91.00;;;;;;5017753;28;20120;-70
2021/04/03 00:38:03;;;;;;;6.45;3.67;;;8.50;90.90;;;;;;5028448;28;20032;-70
2021/04/03 00:40:38;;;;;;;7.05;3.38;;;8.40;91.00;;;;;;5035169;28;20068;-71
2021/04/03 00:43:10;;;;;;;10.55;4.15;;;8.40;91.00;;;;;;5029193;28;20391;-69
2021/04/03 00:45:36;;;;;;;7.43;3.25;;;8.40;90.90;;;;;;5035193;28;20034;-71
2021/04/03 00:48:02;;;;;;;11.27;3.92;;;8.40;91.00;;;;;;5029792;28;20022;-71
2021/04/03 00:50:32;;;;;;;12.55;4.07;;;8.40;90.90;;;;;;5032560;28;20042;-70
2021/04/03 00:52:57;;;;;;;7.97;3.85;;;8.30;91.00;;;;;;5027237;28;20064;-71
2021/04/03 00:55:23;;;;;;;11.15;3.40;;;8.30;91.10;;;;;;5015929;28;20061;-71
2021/04/03 00:57:49;;;;;;;6.18;3.58;;;8.20;91.30;;;;;;5022888;28;20022;-71
2021/04/03 01:00:17;;;;;;;7.45;4.03;;;8.10;91.40;;;;;;5014515;28;20104;-71
2021/04/03 01:02:42;;;;;;;12.73;4.63;;;8.10;91.60;;;;;;5025289;28;20029;-71
2021/04/03 01:05:11;;;;;;;12.85;3.83;;;8.10;91.40;;;;;;5034559;28;20481;-71
2021/04/03 01:07:36;;;;;;;7.95;3.47;;;8.10;91.50;;;;;;5015668;28;20418;-72
2021/04/03 01:10:04;;;;;;;7.50;3.80;;;8.10;91.40;;;;;;5014741;28;20029;-72
2021/04/03 01:12:42;;;;;;;11.05;3.92;;;8.10;91.30;;;;;;5023517;28;20802;-71
2021/04/03 01:15:17;;;;;;;12.25;4.28;;;8.10;91.40;;;;;;5016459;28;20083;-71
2021/04/03 01:18:09;;;;;;;6.65;3.30;;;8.10;91.40;;;;;;5007429;28;20580;-70
2021/04/03 01:21:00;;;;;;;7.85;3.88;;;8.00;91.30;;;;;;4977480;28;20129;-70
2021/04/03 01:23:45;;;;;;;11.32;3.85;;;8.00;91.50;;;;;;5027575;28;20438;-68
2021/04/03 01:26:13;;;;;;;;;;;7.90;91.40;;;;;;5020649;28;20033;-71
2021/04/03 01:29:08;;;;;;;10.23;3.67;;;7.80;91.80;;;;;;5029658;28;20389;-71
2021/04/03 01:31:38;;;;;;;9.07;4.18;;;7.70;91.80;;;;;;5013891;28;20034;-71
2021/04/03 01:34:08;;;;;;;6.03;3.60;;;7.70;92.00;;;;;;5022168;28;20113;-70
2021/04/03 01:36:37;;;;;;;8.10;4.10;;;7.70;91.80;;;;;;5015856;28;20030;-71
2021/04/03 01:39:23;;;;;;;8.98;3.63;;;7.60;92.00;;;;;;5020274;28;20494;-70
2021/04/03 01:41:50;;;;;;;9.10;3.88;;;7.60;91.70;;;;;;5016905;28;20045;-71
2021/04/03 01:44:18;;;;;;;6.13;3.03;;;7.60;91.70;;;;;;5018920;28;20034;-71
2021/04/03 01:46:45;;;;;;;8.75;3.60;;;7.60;91.80;;;;;;5016215;28;20478;-71
2021/04/03 01:49:13;;;;;;;9.43;3.78;;;7.60;91.80;;;;;;5019315;28;20030;-71
2021/04/03 01:51:43;;;;;;;7.93;3.75;;;7.50;91.80;;;;;;4998555;28;20030;-71
2021/04/03 01:54:10;;;;;;;7.28;3.60;;;7.60;91.80;;;;;;5033277;28;20080;-71
2021/04/03 01:56:37;;;;;;;8.55;3.50;;;7.60;91.80;;;;;;5016390;28;20022;-71
2021/04/03 01:59:05;;;;;;;11.10;4.30;;;7.60;91.70;;;;;;5030010;28;20038;-70
2021/04/03 02:01:31;;;;;;;7.55;3.58;;;7.50;91.80;;;;;;5011746;28;20081;-70
2021/04/03 02:03:58;;;;;;;8.30;3.70;;;7.50;91.70;;;;;;4994870;28;20030;-70
2021/04/03 02:06:24;;;;;;;8.20;3.75;;;7.50;91.80;;;;;;5009995;28;20545;-70
2021/04/03 02:08:50;;;;;;;10.02;3.92;;;7.50;91.80;;;;;;5033677;28;20032;-70
2021/04/03 02:11:16;;;;;;;13.38;4.80;;;7.40;91.90;;;;;;5013100;28;20461;-69
2021/04/03 02:13:42;;;;;;;10.50;3.63;;;7.40;92.00;;;;;;5033599;28;20359;-69
2021/04/03 02:16:08;;;;;;;8.80;3.78;;;7.40;92.00;;;;;;5015898;28;20037;-70
2021/04/03 02:18:34;;;;;;;8.27;3.92;;;7.30;92.00;;;;;;5026218;28;20014;-70
2021/04/03 02:21:04;;;;;;;10.35;4.70;;;7.30;92.00;;;;;;5012866;28;20022;-71
2021/04/03 02:23:34;;;;;;;7.47;3.60;;;7.30;92.00;;;;;;5029336;28;20125;-71
2021/04/03 02:26:00;;;;;;;10.95;3.85;;;7.30;92.10;;;;;;5012416;28;20034;-71
2021/04/03 02:28:26;;;;;;;11.80;4.00;;;7.20;92.00;;;;;;5029292;28;20436;-71
2021/04/03 02:30:53;;;;;;;9.07;4.18;;;7.20;92.20;;;;;;5013256;28;20105;-72
2021/04/03 02:33:19;;;;;;;8.15;4.20;;;7.20;92.10;;;;;;5027441;28;20301;-72
2021/04/03 02:35:44;;;;;;;9.00;4.63;;;7.20;92.00;;;;;;5013867;28;20037;-72
2021/04/03 02:38:11;;;;;;;9.48;3.72;;;7.20;92.20;;;;;;5026319;28;20373;-71
2021/04/03 02:40:37;;;;;;;12.15;4.47;;;7.20;92.30;;;;;;5012783;28;20041;-71
2021/04/03 02:43:24;;;;;;;7.40;3.97;;;7.10;92.20;;;;;;5025517;28;20022;-71
2021/04/03 02:46:16;;;;;;;8.70;3.88;;;7.20;92.10;;;;;;4992798;28;20038;-71
2021/04/03 02:48:49;;;;;;;8.93;3.72;;;7.10;92.10;;;;;;5012921;28;20026;-71
2021/04/03 02:51:20;;;;;;;8.38;4.28;;;7.10;92.30;;;;;;4993653;28;20077;-71
2021/04/03 02:53:47;;;;;;;10.15;4.20;;;7.10;92.00;;;;;;5025507;28;20079;-71
2021/04/03 02:56:14;;;;;;;9.82;3.90;;;7.10;92.00;;;;;;5029934;28;20500;-71
2021/04/03 02:58:40;;;;;;;9.48;4.38;;;7.10;92.10;;;;;;5013637;28;20042;-71
2021/04/03 03:01:11;;;;;;;7.30;4.32;;;7.10;92.20;;;;;;5005130;28;20072;-71
2021/04/03 03:03:37;;;;;;;7.13;3.83;;;7.00;92.20;;;;;;5011326;28;20702;-71
2021/04/03 03:06:03;;;;;;;10.27;4.30;;;7.00;92.10;;;;;;5012310;28;20040;-71
2021/04/03 03:08:31;;;;;;;8.70;4.00;;;7.00;92.20;;;;;;5018473;28;20438;-71
2021/04/03 03:10:57;;;;;;;9.25;4.25;;;7.00;92.10;;;;;;5012138;28;20478;-71
2021/04/03 03:13:24;;;;;;;8.70;4.30;;;7.00;92.30;;;;;;5028843;28;20470;-72
2021/04/03 03:15:50;;;;;;;7.85;4.13;;;7.00;92.30;;;;;;4998419;28;20031;-71
2021/04/03 03:18:16;;;;;;;13.52;4.32;;;6.90;92.30;;;;;;5022327;28;20432;-72
2021/04/03 03:20:43;;;;;;;11.32;3.88;;;6.80;92.40;;;;;;4994579;28;20482;-72
2021/04/03 03:23:11;;;;;;;7.68;4.00;;;6.80;92.40;;;;;;5026805;28;20040;-72
2021/04/03 03:25:37;;;;;;;9.18;4.18;;;6.80;92.50;;;;;;5011465;28;20073;-72
2021/04/03 03:28:03;;;;;;;11.15;4.47;;;6.80;92.50;;;;;;5025910;28;20029;-72
2021/04/03 03:30:30;;;;;;;6.88;3.50;;;6.80;92.70;;;;;;5005604;28;20157;-72
2021/04/03 03:32:56;;;;;;;9.15;4.30;;;6.80;92.70;;;;;;5024706;28;20512;-72
2021/04/03 03:35:22;;;;;;;10.98;4.20;;;6.80;92.50;;;;;;5020963;28;20033;-72
2021/04/03 03:37:48;;;;;;;9.60;4.32;;;6.80;92.50;;;;;;5023907;28;20116;-72
2021/04/03 03:40:15;;;;;;;11.43;4.43;;;6.70;92.40;;;;;;5022486;28;20407;-72
2021/04/03 03:42:42;;;;;;;9.68;4.10;;;6.80;92.40;;;;;;5016980;28;20029;-71
2021/04/03 03:45:11;;;;;;;9.95;4.25;;;6.80;92.60;;;;;;5012129;28;20175;-72
2021/04/03 03:47:37;;;;;;;10.50;4.72;;;6.80;92.50;;;;;;5018008;28;20021;-71
2021/04/03 03:50:07;;;;;;;10.05;4.65;;;6.80;92.70;;;;;;5010323;28;20083;-71
2021/04/03 03:52:33;;;;;;;10.43;4.05;;;6.70;92.60;;;;;;5018677;28;20041;-71
2021/04/03 03:54:58;;;;;;;14.00;4.93;;;6.70;92.50;;;;;;5011775;28;20033;-70
2021/04/03 03:57:23;;;;;;;8.93;4.22;;;6.70;92.60;;;;;;5011354;28;20087;-70
2021/04/03 03:59:49;;;;;;;8.65;3.72;;;6.70;92.50;;;;;;5011776;28;20053;-70
2021/04/03 04:02:14;;;;;;;9.55;4.00;;;6.70;92.50;;;;;;5018058;28;20029;-71
2021/04/03 04:04:40;;;;;;;8.25;4.00;;;6.70;92.50;;;;;;5012339;28;20030;-70
2021/04/03 04:07:06;;;;;;;7.20;3.88;;;6.70;92.40;;;;;;5017797;28;20112;-69
2021/04/03 04:09:31;;;;;;;9.00;4.10;;;6.70;92.50;;;;;;5013717;28;20041;-71
2021/04/03 04:12:08;;;;;;;11.77;4.78;;;6.70;92.50;;;;;;5015755;28;20028;-71
2021/04/03 04:14:35;;;;;;;9.95;4.57;;;6.70;92.50;;;;;;5013552;28;20044;-71
2021/04/03 04:17:02;;;;;;;8.32;4.05;;;6.70;92.40;;;;;;5016468;28;20032;-71
2021/04/03 04:19:27;;;;;;;10.95;4.32;;;6.70;92.40;;;;;;5011911;28;20030;-71
2021/04/03 04:21:54;;;;;;;12.07;4.30;;;6.70;92.50;;;;;;5015817;28;20040;-71
2021/04/03 04:24:20;;;;;;;8.02;3.95;;;6.70;92.50;;;;;;5013483;28;20084;-71
2021/04/03 04:26:46;;;;;;;15.07;5.78;;;6.60;92.60;;;;;;5013930;28;20025;-71
2021/04/03 04:29:11;;;;;;;11.00;5.10;;;6.60;92.70;;;;;;5014850;28;20026;-71
2021/04/03 04:31:37;;;;;;;9.00;3.88;;;6.50;92.60;;;;;;5011541;28;20036;-71
2021/04/03 04:34:03;;;;;;;8.32;4.05;;;6.60;92.70;;;;;;5012782;28;20065;-71
2021/04/03 04:36:28;;;;;;;8.68;4.18;;;6.60;92.50;;;;;;4998852;28;20068;-71
2021/04/03 04:38:54;;;;;;;9.10;4.20;;;6.60;92.40;;;;;;5031645;28;20079;-71
2021/04/03 04:41:20;;;;;;;11.77;4.57;;;6.60;92.40;;;;;;5023166;28;20052;-71
2021/04/03 04:43:45;;;;;;;7.25;3.95;;;6.60;92.40;;;;;;5011118;28;20033;-71
2021/04/03 04:46:11;;;;;;;8.70;3.78;;;6.60;92.40;;;;;;4992275;28;20058;-71
2021/04/03 04:48:36;;;;;;;7.95;3.85;;;6.60;92.40;;;;;;5026257;28;20049;-71
2021/04/03 04:51:02;;;;;;;11.38;4.47;;;6.50;92.50;;;;;;5020423;28;20443;-71
2021/04/03 04:53:27;;;;;;;10.68;4.63;;;6.50;92.50;;;;;;5025136;28;20509;-71
2021/04/03 04:55:53;;;;;;;8.13;4.22;;;6.50;92.60;;;;;;5011560;28;20463;-71
2021/04/03 04:58:18;;;;;;;9.25;3.85;;;6.50;92.50;;;;;;5009894;28;20029;-71
2021/04/03 05:00:44;;;;;;;9.02;4.85;;;6.50;92.50;;;;;;5011958;28;20487;-72
2021/04/03 05:03:09;;;;;;;10.43;4.35;;;6.50;92.50;;;;;;5009991;28;20037;-71
2021/04/03 05:05:35;;;;;;;12.95;4.30;;;6.60;92.70;;;;;;5012337;28;20022;-70
2021/04/03 05:08:01;;;;;;;9.02;3.80;;;6.50;92.50;;;;;;5028091;28;20029;-71
2021/04/03 05:10:26;;;;;;;7.82;3.83;;;6.60;92.40;;;;;;5016666;28;20046;-71
2021/04/03 05:12:52;;;;;;;8.65;4.15;;;6.70;92.40;;;;;;5026354;28;20032;-71
2021/04/03 05:15:17;;;;;;;10.13;4.65;;;6.60;92.30;;;;;;5018257;28;20525;-72
2021/04/03 05:17:43;;;;;;;10.60;4.35;;;6.60;92.40;;;;;;5013719;28;20026;-72
2021/04/03 05:20:09;;;;;;;7.63;4.10;;;6.60;92.50;;;;;;5013569;28;20262;-76
2021/04/03 05:22:35;;;;;;;10.25;3.70;;;6.60;92.50;;;;;;5013164;28;20022;-71
2021/04/03 05:25:00;;;;;;;8.50;4.20;;;6.60;92.50;;;;;;5014250;28;20372;-71
2021/04/03 05:27:26;;;;;;;9.18;3.67;;;6.60;92.50;;;;;;5013665;28;20030;-71
2021/04/03 05:29:51;;;;;;;9.63;4.18;;;6.70;92.50;;;;;;5014014;28;20038;-71
2021/04/03 05:32:17;;;;;;;14.25;5.18;;;6.70;92.40;;;;;;5013149;28;20056;-70
2021/04/03 05:34:42;;;;;;;10.85;4.22;;;6.70;92.50;;;;;;5018446;28;20037;-71
2021/04/03 05:37:10;;;;;;;10.85;4.60;;;6.70;92.50;;;;;;5015298;28;20033;-71
2021/04/03 05:39:36;;;;;;;9.77;4.28;;;6.80;92.60;;;;;;5014279;28;20487;-71
2021/04/03 05:42:02;;;;;;;9.07;4.10;;;6.80;92.40;;;;;;5022842;28;20037;-72
2021/04/03 05:44:29;;;;;;;9.77;4.57;;;6.80;92.30;;;;;;5030008;28;20025;-71
2021/04/03 05:46:54;;;;;;;10.40;4.57;;;6.90;92.20;;;;;;5012692;28;20395;-71
2021/04/03 05:49:21;;;;;;;8.18;3.90;;;6.90;92.20;;;;;;5013822;28;20029;-72
2021/04/03 05:51:47;;;;;;;9.85;4.78;;;7.00;92.10;;;;;;5012146;28;20029;-72
2021/04/03 05:54:12;;;;;;;13.02;5.03;;;7.00;92.20;;;;;;5013737;28;20113;-71
2021/04/03 05:56:38;;;;;;;12.68;4.18;;;6.90;92.30;;;;;;5012701;28;20026;-72
2021/04/03 05:59:04;;;;;;;9.20;4.07;;;6.90;92.20;;;;;;5013497;28;20528;-72
2021/04/03 06:01:29;;;;;;;9.82;4.13;;;7.00;92.10;;;;;;5014371;28;20037;-72
2021/04/03 06:03:55;;;;;;;9.95;4.55;;;6.90;92.10;;;;;;5033503;28;20022;-71
2021/04/03 06:06:25;;;;;;;6.57;3.70;;;7.00;92.10;;;;;;5019026;28;20038;-71
2021/04/03 06:08:51;;;;;;;7.22;3.92;;;7.00;92.10;;;;;;5020714;28;20026;-71
2021/04/03 06:11:19;;;;;;;11.13;4.28;;;7.10;92.00;;;;;;5011441;28;20042;-72
2021/04/03 06:14:05;;;;;;;8.35;3.80;;;7.10;91.90;;;;;;4994345;28;20113;-72
2021/04/03 06:16:36;;;;;;;13.95;4.63;;;7.20;91.80;;;;;;5010675;28;20113;-72
2021/04/03 06:19:10;;;;;;;8.10;4.38;;;7.30;91.70;;;;;;5023819;28;20080;-72
2021/04/03 06:21:37;;;;;;;10.32;3.63;;;7.30;91.50;;;;;;5014315;28;20034;-72
2021/04/03 06:24:24;;;;;;;6.57;3.63;;;7.40;91.20;;;;;;5033427;28;20545;-72
2021/04/03 06:27:02;;;;;;;6.70;2.90;;;7.40;91.00;;;;;;5016238;28;20421;-72
2021/04/03 06:29:42;;;;;;;6.30;3.03;;;7.40;89.60;;;;;;5013578;28;20105;-72
2021/04/03 06:32:23;;;;;;;7.65;2.90;;;7.30;89.40;;;;;;5018503;28;20394;-70
2021/04/03 06:34:51;;;;;;;6.50;3.45;;;7.30;90.00;;;;;;5030782;28;20053;-70
2021/04/03 06:37:29;;;;;;;5.38;2.85;;;7.20;89.00;;;;;;5019793;28;20409;-71
2021/04/03 06:39:58;;;;;;;6.28;3.05;;;7.10;89.40;;;;;;5030490;28;20080;-71
2021/04/03 06:42:44;;;;;;;5.13;2.95;;;7.10;89.00;;;;;;5021399;28;20382;-71
2021/04/03 06:45:29;;;;;;;4.57;2.90;;;7.10;89.10;;;;;;5014789;28;20069;-71
2021/04/03 06:47:58;;;;;;;10.60;3.20;;;7.10;88.80;;;;;;5010604;28;20536;-71
2021/04/03 06:50:27;;;;;;;4.68;2.80;;;7.10;88.80;;;;;;5012905;28;20049;-70
2021/04/03 06:52:53;;;;;;;5.32;2.90;;;7.10;89.20;;;;;;5024962;28;20489;-70
2021/04/03 06:55:21;;;;;;;6.90;3.00;;;7.10;89.10;;;;;;4983760;28;20037;-72
2021/04/03 06:57:47;;;;;;;4.35;2.60;;;7.20;88.10;;;;;;5013076;28;20030;-71
2021/04/03 07:00:17;;;;;;;4.40;2.40;;;7.20;88.50;;;;;;5011035;28;20100;-70
2021/04/03 07:02:56;;;;;;;6.15;2.97;;;7.30;87.60;;;;;;5013049;28;20040;-69
2021/04/03 07:05:23;;;;;;;5.65;2.58;;;7.30;87.60;;;;;;5012512;28;20077;-67
2021/04/03 07:07:49;;;;;;;4.68;2.63;;;7.40;87.50;;;;;;5011007;28;20608;-65
2021/04/03 07:10:17;;;;;;;5.35;2.42;;;7.40;86.80;;;;;;5018482;28;20041;-66
2021/04/03 07:12:43;;;;;;;6.35;2.45;;;7.50;87.00;;;;;;5017375;28;20389;-67
2021/04/03 07:15:10;;;;;;;5.82;2.65;;;7.50;86.60;;;;;;5012381;28;20113;-69
2021/04/03 07:17:38;;;;;;;4.63;2.50;;;7.60;85.80;;;;;;5022376;28;20030;-69
2021/04/03 07:20:06;;;;;;;3.97;2.00;;;7.60;85.00;;;;;;5016147;28;20038;-69
2021/04/03 07:22:33;;;;;;;4.90;2.50;;;7.60;84.20;;;;;;5001421;28;20022;-69
2021/04/03 07:24:59;;;;;;;3.22;1.85;;;7.60;82.60;;;;;;5011376;28;20034;-69
2021/04/03 07:27:25;;;;;;;4.25;1.75;;;7.60;80.10;;;;;;5020054;28;20033;-68
2021/04/03 07:29:51;;;;;;;5.20;1.90;;;7.60;80.40;;;;;;5032073;28;20041;-69
2021/04/03 07:32:33;;;;;;;3.85;2.10;;;7.70;79.60;;;;;;5020703;28;20026;-69
2021/04/03 07:34:59;;;;;;;4.63;2.22;;;7.80;79.90;;;;;;5003137;28;20489;-69
2021/04/03 07:37:32;;;;;;;4.15;1.90;;;7.80;79.70;;;;;;5020108;28;20029;-69
2021/04/03 07:39:58;;;;;;;3.85;2.22;;;7.90;79.60;;;;;;5023081;28;20124;-69
2021/04/03 07:42:38;;;;;;;4.50;1.80;;;7.90;78.80;;;;;;5013227;28;20128;-69
2021/04/03 07:45:41;;;;;;;4.65;1.85;;;8.10;78.10;;;;;;5010866;28;20041;-69
2021/04/03 07:48:14;;;;;;;2.45;1.35;;;8.10;75.10;;;;;;4999267;28;20034;-69
2021/04/03 07:50:39;;;;;;;3.30;1.83;;;8.10;75.40;;;;;;5010890;28;20510;-69
2021/04/03 07:53:05;;;;;;;3.45;1.67;;;8.20;75.30;;;;;;5003304;28;20031;-69
2021/04/03 07:55:40;;;;;;;3.78;1.67;;;8.20;75.30;;;;;;5006417;28;20064;-69
2021/04/03 07:58:25;;;;;;;4.63;1.73;;;8.30;74.00;;;;;;5026146;28;20034;-69
2021/04/03 08:00:52;;;;;;;;;;;8.30;70.60;;;;;;5013431;28;20054;-70
2021/04/03 08:03:22;;;;;;;2.63;1.40;;;8.40;70.40;;;;;;5025281;28;19938;-69
2021/04/03 08:05:50;;;;;;;7.65;3.45;;;8.40;72.10;;;;;;5015290;28;20033;-69
2021/04/03 08:08:19;;;;;;;4.00;1.33;;;8.40;71.10;;;;;;5017444;28;20052;-70
2021/04/03 08:10:45;;;;;;;4.13;1.50;;;8.50;70.00;;;;;;5017934;28;20041;-70
2021/04/03 08:13:11;;;;;;;2.63;1.60;;;8.60;67.80;;;;;;5026319;28;20029;-69
2021/04/03 08:15:56;;;;;;;5.55;1.45;;;8.60;66.10;;;;;;5016067;28;20417;-69
2021/04/03 08:18:44;;;;;;;2.70;1.25;;;8.70;66.90;;;;;;4992470;28;20506;-69
2021/04/03 08:21:13;;;;;;;5.45;2.08;;;8.80;67.60;;;;;;5006383;28;20513;-71
2021/04/03 08:23:41;;;;;;;3.58;1.30;;;8.80;67.90;;;;;;4991941;28;20030;-70
2021/04/03 08:26:08;;;;;;;3.42;1.40;;;9.00;66.90;;;;;;5005949;28;20033;-70
2021/04/03 08:28:34;;;;;;;2.88;1.48;;;9.10;66.40;;;;;;5019537;28;20042;-69
2021/04/03 08:31:27;;;;;;;2.95;1.33;;;9.20;64.00;;;;;;5009612;28;20502;-70
2021/04/03 08:33:55;;;;;;;3.55;1.20;;;9.20;61.60;;;;;;5016295;28;20033;-70
2021/04/03 08:36:24;;;;;;;2.45;1.33;;;9.30;62.60;;;;;;5013432;28;20029;-70
2021/04/03 08:38:51;;;;;;;1.55;1.20;;;9.30;60.10;;;;;;4982979;28;20044;-70
2021/04/03 08:41:18;;;;;;;3.28;1.20;;;9.30;61.00;;;;;;4997709;28;20029;-70
2021/04/03 08:43:45;;;;;;;3.08;1.48;;;9.30;60.50;;;;;;5003205;28;20037;-70
2021/04/03 08:46:14;;;;;;;4.78;1.90;;;9.50;60.90;;;;;;5013290;28;20033;-70
2021/04/03 08:48:59;;;;;;;4.15;1.30;;;9.50;60.50;;;;;;5014934;28;20173;-70
2021/04/03 08:51:25;;;;;;;2.72;1.52;;;9.60;59.20;;;;;;5014897;28;20119;-70
2021/04/03 08:54:00;;;;;;;3.63;1.23;;;9.70;59.50;;;;;;5033019;28;20029;-69
2021/04/03 08:56:26;;;;;;;4.82;1.45;;;9.80;60.30;;;;;;4998775;28;20040;-69
2021/04/03 08:58:53;;;;;;;3.72;1.50;;;10.00;59.80;;;;;;5033514;28;20034;-70
2021/04/03 09:01:27;;;;;;;3.38;1.45;;;10.00;58.50;;;;;;5014402;28;20747;-71
2021/04/03 09:03:57;;;;;;;3.72;1.50;;;10.00;59.20;;;;;;5033884;28;20104;-69
2021/04/03 09:06:39;;;;;;;2.95;1.50;;;10.10;59.00;;;;;;4997698;28;20038;-72
2021/04/03 09:09:16;;;;;;;2.67;1.30;;;9.90;56.70;;;;;;5015655;28;20052;-68
2021/04/03 09:11:58;;;;;;;3.33;1.63;;;9.60;56.80;;;;;;5014400;28;20645;-74
2021/04/03 09:14:50;;;;;;;2.17;1.20;;;9.60;57.80;;;;;;5014338;28;20033;-73
2021/04/03 09:17:26;;;;;;;2.35;1.20;;;9.50;58.00;;;;;;5004245;28;20022;-75
2021/04/03 09:19:52;;;;;;;3.03;1.08;;;9.50;59.40;;;;;;5014288;28;20482;-75
2021/04/03 09:22:20;;;;;;;3.00;1.13;;;9.60;59.40;;;;;;5013886;28;20060;-76
2021/04/03 09:24:55;;;;;;;2.63;1.35;;;9.70;58.70;;;;;;5013641;28;20033;-75
2021/04/03 09:27:22;;;;;;;2.40;1.50;;;9.80;58.80;;;;;;5010016;28;20030;-75
2021/04/03 09:29:54;;;;;;;2.88;1.10;;;9.90;58.40;;;;;;5003639;28;20084;-75
2021/04/03 09:32:19;;;;;;;2.60;1.27;;;10.00;57.00;;;;;;5012939;28;20042;-74
2021/04/03 09:34:45;;;;;;;2.40;0.90;;;10.00;56.60;;;;;;5013804;28;20029;-74
2021/04/03 09:37:19;;;;;;;1.98;1.02;;;10.00;56.80;;;;;;5013074;28;20022;-75
2021/04/03 09:39:46;;;;;;;1.88;0.85;;;9.80;55.60;;;;;;5012746;28;20139;-73
2021/04/03 09:42:14;;;;;;;2.75;1.60;;;9.70;56.20;;;;;;5012970;28;20430;-74
2021/04/03 09:44:40;;;;;;;3.05;1.20;;;9.80;57.20;;;;;;5013453;28;20033;-73
2021/04/03 09:47:05;;;;;;;2.15;1.30;;;10.00;57.50;;;;;;4995993;28;20029;-73
2021/04/03 09:49:32;;;;;;;3.25;1.10;;;10.10;57.10;;;;;;5013166;28;20026;-74
2021/04/03 09:51:58;;;;;;;4.53;1.27;;;10.10;56.70;;;;;;4995616;28;20394;-75
2021/04/03 09:54:24;;;;;;;1.80;0.90;;;10.10;55.00;;;;;;5012757;28;20018;-74
2021/04/03 09:56:49;;;;;;;2.38;1.20;;;10.00;55.70;;;;;;5013552;28;20437;-74
2021/04/03 09:59:15;;;;;;;2.40;0.95;;;9.90;55.70;;;;;;5007151;28;20388;-75
2021/04/03 10:01:40;;;;;;;3.63;1.08;;;9.90;55.30;;;;;;5012583;28;20121;-74
2021/04/03 10:04:06;;;;;;;1.98;1.10;;;9.80;55.50;;;;;;5012874;28;20100;-74
2021/04/03 10:06:31;;;;;;;3.67;1.20;;;9.90;56.20;;;;;;5011502;28;20098;-74
2021/04/03 10:08:57;;;;;;;1.23;0.90;;;9.90;54.80;;;;;;5013647;28;20022;-74
2021/04/03 10:11:22;;;;;;;2.90;1.20;;;10.00;54.00;;;;;;5012076;28;20046;-73
2021/04/03 10:13:48;;;;;;;2.95;1.30;;;10.00;54.60;;;;;;5013429;28;20105;-74
2021/04/03 10:16:16;;;;;;;2.53;1.33;;;10.10;53.00;;;;;;5009504;28;20444;-73
2021/04/03 10:18:41;;;;;;;1.67;0.98;;;10.10;53.90;;;;;;5009000;28;20101;-75
2021/04/03 10:21:09;;;;;;;2.50;1.58;;;10.20;53.20;;;;;;5013370;28;20025;-73
2021/04/03 10:23:34;;;;;;;7.60;2.33;;;10.10;53.90;;;;;;5012664;28;20030;-75
2021/04/03 10:26:00;;;;;;;2.03;1.30;;;10.20;54.30;;;;;;5013100;28;20026;-75
2021/04/03 10:28:25;;;;;;;3.17;1.05;;;10.30;54.50;;;;;;5012337;28;20092;-75
2021/04/03 10:30:51;;;;;;;2.08;0.90;;;10.30;54.40;;;;;;4995550;28;20066;-76
2021/04/03 10:33:17;;;;;;;3.08;1.27;;;10.30;52.80;;;;;;5012808;28;20044;-75
2021/04/03 10:35:42;;;;;;;3.75;1.20;;;10.30;52.90;;;;;;5013437;28;20037;-74
2021/04/03 10:38:08;;;;;;;3.38;1.15;;;10.40;53.90;;;;;;5012012;28;20493;-74
2021/04/03 10:40:34;;;;;;;2.13;1.05;;;10.50;53.10;;;;;;5030425;28;20117;-74
2021/04/03 10:42:59;;;;;;;2.53;1.23;;;10.60;52.90;;;;;;5017525;28;20063;-72
2021/04/03 10:45:25;;;;;;;2.08;0.90;;;10.60;48.90;;;;;;5032963;28;20111;-71
2021/04/03 10:47:50;;;;;;;1.80;1.00;;;10.60;49.70;;;;;;5029471;28;20425;-72
2021/04/03 10:50:16;;;;;;;4.55;1.20;;;10.60;49.10;;;;;;5032319;28;20049;-71
2021/04/03 10:52:42;;;;;;;0.88;0.70;;;10.60;49.00;;;;;;5029738;28;20025;-72
2021/04/03 10:55:08;;;;;;;3.67;1.13;;;10.80;49.70;;;;;;5030857;28;20045;-71
2021/04/03 10:57:33;;;;;;;2.25;1.10;;;10.80;49.90;;;;;;5008151;28;20066;-71
2021/04/03 10:59:59;;;;;;;2.13;1.20;;;11.00;49.30;;;;;;5008421;28;20081;-71
2021/04/03 11:02:24;;;;;;;1.38;0.90;;;11.00;47.60;;;;;;5019240;28;20506;-71
2021/04/03 11:04:50;;;;;;;1.38;0.85;;;11.00;48.10;;;;;;5012688;28;20026;-71
2021/04/03 11:07:15;;;;;;;3.03;1.35;;;11.00;44.50;;;;;;5018990;28;20037;-71
2021/04/03 11:09:41;;;;;;;2.40;0.75;;;10.90;44.70;;;;;;5032415;28;20064;-71
2021/04/03 11:12:07;;;;;;;1.77;0.85;;;10.90;44.10;;;;;;5025057;28;20036;-71
2021/04/03 11:14:32;;;;;;;3.22;0.90;;;10.80;45.50;;;;;;5012993;28;20062;-71
2021/04/03 11:16:58;;;;;;;0.77;0.75;;;10.80;46.10;;;;;;5022617;28;20109;-72
2021/04/03 11:19:24;;;;;;;3.88;1.20;;;10.80;47.00;;;;;;5012790;28;20344;-71
2021/04/03 11:21:51;;;;;;;3.22;1.15;;;10.80;47.80;;;;;;5015504;28;20030;-71
2021/04/03 11:24:16;;;;;;;4.07;1.20;;;10.70;49.00;;;;;;5026510;28;20034;-70
2021/04/03 11:26:42;;;;;;;1.95;1.00;;;10.80;49.70;;;;;;5014776;28;20038;-71
2021/04/03 11:29:07;;;;;;;3.65;0.88;;;10.80;50.30;;;;;;5027515;28;20017;-71
2021/04/03 11:31:33;;;;;;;2.75;0.88;;;10.70;50.50;;;;;;5025679;28;20034;-71
2021/04/03 11:33:58;;;;;;;3.35;1.30;;;10.80;50.60;;;;;;5012974;28;20017;-71
2021/04/03 11:36:24;;;;;;;1.17;0.82;;;10.70;50.30;;;;;;4993909;28;20041;-71
2021/04/03 11:38:49;;;;;;;4.05;1.75;;;10.70;51.40;;;;;;5025090;28;20041;-71
2021/04/03 11:41:15;;;;;;;3.53;1.92;;;10.70;50.80;;;;;;5010680;28;20022;-71
2021/04/03 11:43:40;;;;;;;4.03;1.15;;;10.80;49.60;;;;;;5003321;28;20048;-71
2021/04/03 11:46:06;;;;;;;2.00;1.50;;;10.80;49.60;;;;;;5011414;28;20026;-71
2021/04/03 11:48:32;;;;;;;7.32;1.38;;;10.80;49.60;;;;;;5021589;28;20029;-71
2021/04/03 11:50:57;;;;;;;3.13;1.35;;;10.80;49.90;;;;;;5011503;28;20505;-72
2021/04/03 11:53:23;;;;;;;3.13;1.35;;;10.80;49.70;;;;;;5014937;28;20023;-72
2021/04/03 11:55:48;;;;;;;3.40;1.77;;;10.90;49.60;;;;;;5020641;28;20080;-70
2021/04/03 11:58:14;;;;;;;4.53;1.60;;;11.00;49.70;;;;;;5012534;28;20597;-71
2021/04/03 12:00:39;;;;;;;3.65;2.05;;;11.00;49.60;;;;;;5021511;28;20085;-72
2021/04/03 12:03:05;;;;;;;3.45;1.15;;;11.10;48.70;;;;;;5009109;28;20022;-71
2021/04/03 12:05:31;;;;;;;2.15;1.00;;;11.20;48.60;;;;;;5012073;28;20022;-71
2021/04/03 12:07:56;;;;;;;2.72;1.30;;;11.20;48.70;;;;;;5010306;28;20084;-71
2021/04/03 12:10:22;;;;;;;2.70;1.50;;;11.20;49.00;;;;;;5011550;28;20049;-71
2021/04/03 12:12:47;;;;;;;2.40;0.93;;;11.40;47.90;;;;;;5008182;28;20417;-70
2021/04/03 12:15:15;;;;;;;1.45;0.90;;;11.30;47.90;;;;;;5017130;28;20068;-70
2021/04/03 12:17:40;;;;;;;1.90;0.85;;;11.20;47.20;;;;;;4998470;28;20112;-70
2021/04/03 12:20:08;;;;;;;2.10;1.08;;;11.20;47.10;;;;;;4999925;28;20057;-71
2021/04/03 12:22:34;;;;;;;1.98;1.08;;;11.30;45.90;;;;;;5017345;28;20038;-70
2021/04/03 12:24:59;;;;;;;1.77;0.98;;;11.30;45.40;;;;;;5017380;28;20030;-71
2021/04/03 12:27:25;;;;;;;3.13;1.15;;;11.30;45.40;;;;;;5016559;28;20033;-69
2021/04/03 12:29:51;;;;;;;1.98;1.13;;;11.30;45.00;;;;;;5016337;28;20034;-71
2021/04/03 12:32:17;;;;;;;3.10;1.20;;;11.30;45.10;;;;;;4997681;28;20117;-71
2021/04/03 12:34:43;;;;;;;2.42;1.13;;;11.30;45.70;;;;;;5017408;28;20095;-71
2021/04/03 12:37:10;;;;;;;3.08;0.93;;;11.40;45.60;;;;;;5009671;28;20019;-70
2021/04/03 12:39:35;;;;;;;1.92;0.80;;;11.30;43.10;;;;;;5013971;28;20041;-70
2021/04/03 12:42:01;;;;;;;2.03;1.10;;;11.40;44.10;;;;;;5005198;28;20034;-69
2021/04/03 12:44:26;;;;;;;1.08;0.60;;;11.50;41.80;;;;;;5001084;28;20312;-71
2021/04/03 12:46:52;;;;;;;2.05;0.80;;;11.50;40.60;;;;;;5014306;28;20181;-71
2021/04/03 12:49:17;;;;;;;3.08;1.40;;;11.50;40.70;;;;;;5017641;28;20030;-68
2021/04/03 12:51:43;;;;;;;3.58;1.20;;;11.50;41.60;;;;;;5016585;28;20033;-71
2021/04/03 12:54:08;;;;;;;3.92;1.00;;;11.50;41.40;;;;;;5017001;28;20049;-70
2021/04/03 12:56:34;;;;;;;3.38;1.58;;;11.50;42.50;;;;;;5014602;28;20026;-70
2021/04/03 12:59:00;;;;;;;2.55;1.00;;;11.60;42.00;;;;;;5032229;28;20030;-70